Time;durP1;ratioP1;P1;durP2;ratioP2;P2;SDS_P1;SDS_P2;PMS_P1;PMS_P2;Temp;Humidity;BMP_temperature;BMP_pressure;BME280_temperature;BME280_humidity;BME280_pressure;Samples;Min_cycle;Max_cycle;Signal;HPM_P1;HPM_P2
2021/06/02 00:01:21;;;;;;;0.70;0.70;;;14.60;99.90;;;;;;5044873;28;20194;-68
2021/06/02 00:03:48;;;;;;;0.93;0.75;;;14.50;99.90;;;;;;5045244;28;20705;-67
2021/06/02 00:06:13;;;;;;;3.85;1.00;;;14.40;99.90;;;;;;5045716;28;20186;-68
2021/06/02 00:08:39;;;;;;;1.13;0.63;;;14.40;99.90;;;;;;5045081;28;20259;-68
2021/06/02 00:11:07;;;;;;;0.60;0.60;;;14.40;99.90;;;;;;5045424;28;20186;-69
2021/06/02 00:13:34;;;;;;;0.93;0.60;;;14.40;99.90;;;;;;5044003;28;20601;-67
2021/06/02 00:16:01;;;;;;;0.70;0.70;;;14.40;99.90;;;;;;5045246;28;20182;-68
2021/06/02 00:18:27;;;;;;;0.70;0.70;;;14.40;99.90;;;;;;5059929;28;20217;-69
2021/06/02 00:20:54;;;;;;;0.60;0.60;;;14.40;99.90;;;;;;5043490;28;20653;-69
2021/06/02 00:23:20;;;;;;;1.25;0.95;;;14.40;99.90;;;;;;5045192;28;20657;-68
2021/06/02 00:25:46;;;;;;;0.65;0.65;;;14.30;99.90;;;;;;5045251;28;20236;-67
2021/06/02 00:28:13;;;;;;;0.80;0.68;;;14.30;99.90;;;;;;5044733;28;20622;-67
2021/06/02 00:30:39;;;;;;;1.20;0.80;;;14.30;99.90;;;;;;5044828;28;20182;-70
2021/06/02 00:33:05;;;;;;;0.98;0.82;;;14.30;99.90;;;;;;5059871;28;20563;-68
2021/06/02 00:35:31;;;;;;;0.93;0.60;;;14.20;99.90;;;;;;5044850;28;20704;-69
2021/06/02 00:37:57;;;;;;;0.98;0.70;;;14.10;99.90;;;;;;5044193;28;20192;-68
2021/06/02 00:40:50;;;;;;;1.02;0.73;;;14.10;99.90;;;;;;5044531;28;20182;-67
2021/06/02 00:43:19;;;;;;;0.77;0.60;;;14.00;99.90;;;;;;5044574;28;20645;-68
2021/06/02 00:45:45;;;;;;;0.70;0.70;;;13.90;99.90;;;;;;5044805;28;20202;-69
2021/06/02 00:48:16;;;;;;;1.00;0.75;;;13.90;99.90;;;;;;5044430;28;20214;-68
2021/06/02 00:50:43;;;;;;;1.58;1.00;;;13.90;99.90;;;;;;5044099;28;20209;-69
2021/06/02 00:53:10;;;;;;;0.80;0.73;;;13.90;99.90;;;;;;5044768;28;20638;-67
2021/06/02 00:55:36;;;;;;;0.60;0.60;;;14.00;99.90;;;;;;5044743;28;20197;-68
2021/06/02 00:58:03;;;;;;;0.60;0.50;;;13.90;99.90;;;;;;5043897;28;20265;-69
2021/06/02 01:00:29;;;;;;;0.93;0.55;;;13.90;99.90;;;;;;5060366;28;20554;-69
2021/06/02 01:02:57;;;;;;;0.60;0.60;;;14.00;99.90;;;;;;5043834;28;20245;-69
2021/06/02 01:05:24;;;;;;;0.60;0.60;;;14.00;99.90;;;;;;5044271;28;20664;-67
2021/06/02 01:07:52;;;;;;;1.15;0.90;;;14.10;99.90;;;;;;5044339;28;20178;-68
2021/06/02 01:10:19;;;;;;;0.70;0.70;;;14.10;99.90;;;;;;5044628;28;20174;-67
2021/06/02 01:12:49;;;;;;;0.80;0.80;;;14.10;99.90;;;;;;5043683;28;20170;-68
2021/06/02 01:15:15;;;;;;;0.80;0.80;;;14.00;99.90;;;;;;5044473;28;20265;-67
2021/06/02 01:17:42;;;;;;;1.25;1.05;;;13.80;99.90;;;;;;5044295;28;20684;-68
2021/06/02 01:20:08;;;;;;;0.90;0.75;;;13.70;99.90;;;;;;5044135;28;20214;-67
2021/06/02 01:22:36;;;;;;;0.90;0.82;;;13.60;99.90;;;;;;5043235;28;20265;-69
2021/06/02 01:25:10;;;;;;;0.80;0.80;;;13.50;99.90;;;;;;5044484;28;20177;-67
2021/06/02 01:27:36;;;;;;;0.80;0.80;;;13.50;99.90;;;;;;5044201;28;20204;-68
2021/06/02 01:30:31;;;;;;;1.08;0.90;;;13.60;99.90;;;;;;5044897;28;20282;-67
2021/06/02 01:33:09;;;;;;;1.35;1.10;;;13.50;99.90;;;;;;5041517;28;20221;-67
2021/06/02 01:35:54;;;;;;;1.73;1.30;;;13.50;99.90;;;;;;5044262;28;20178;-67
2021/06/02 01:38:25;;;;;;;1.13;0.90;;;13.50;99.90;;;;;;5043887;28;20689;-68
2021/06/02 01:41:18;;;;;;;1.13;1.02;;;13.50;99.90;;;;;;5043612;28;20228;-68
2021/06/02 01:44:22;;;;;;;1.52;1.27;;;13.50;99.90;;;;;;5044303;28;20205;-68
2021/06/02 01:47:20;;;;;;;1.70;1.60;;;13.50;99.90;;;;;;5043644;28;20673;-68
2021/06/02 01:49:51;;;;;;;1.58;1.40;;;13.50;99.90;;;;;;5045897;28;20220;-68
2021/06/02 01:52:45;;;;;;;3.30;1.20;;;13.50;99.90;;;;;;5047798;28;20180;-69
2021/06/02 01:55:25;;;;;;;1.52;1.10;;;13.60;99.90;;;;;;5048071;28;20645;-67
2021/06/02 01:58:26;;;;;;;1.75;1.42;;;13.50;99.90;;;;;;5048071;28;20196;-67
2021/06/02 02:01:01;;;;;;;1.50;1.30;;;13.60;99.90;;;;;;5047399;28;20177;-67
2021/06/02 02:04:04;;;;;;;1.40;1.30;;;13.60;99.90;;;;;;5048083;28;20257;-67
2021/06/02 02:06:56;;;;;;;1.30;1.10;;;13.60;99.90;;;;;;5047807;28;20196;-68
2021/06/02 02:09:48;;;;;;;1.23;1.00;;;13.50;99.90;;;;;;5045419;28;20333;-69
2021/06/02 02:12:44;;;;;;;1.40;1.17;;;13.50;99.90;;;;;;5046869;28;20185;-69
2021/06/02 02:15:47;;;;;;;1.60;1.20;;;13.40;99.90;;;;;;5047960;28;20179;-68
2021/06/02 02:18:38;;;;;;;1.42;1.13;;;13.40;99.90;;;;;;5047062;28;20255;-67
2021/06/02 02:21:11;;;;;;;1.38;1.20;;;13.30;99.90;;;;;;5046886;28;20193;-68
2021/06/02 02:23:37;;;;;;;2.22;1.77;;;13.20;99.90;;;;;;5047568;28;20185;-68
2021/06/02 02:26:29;;;;;;;2.40;1.75;;;13.20;99.90;;;;;;5047568;28;20544;-68
2021/06/02 02:29:18;;;;;;;3.40;1.50;;;13.20;99.90;;;;;;5047149;28;20579;-68
2021/06/02 02:32:21;;;;;;;1.83;1.70;;;13.20;99.90;;;;;;5047298;28;20240;-66
2021/06/02 02:35:44;;;;;;;2.60;1.95;;;13.20;99.90;;;;;;5062762;28;20265;-67
2021/06/02 02:38:43;;;;;;;2.15;1.70;;;13.10;99.90;;;;;;5004557;28;22510;-68
2021/06/02 02:41:36;;;;;;;1.92;1.70;;;13.10;99.90;;;;;;5004286;28;20658;-68
2021/06/02 02:44:23;;;;;;;3.00;2.00;;;13.10;99.90;;;;;;5046709;28;20186;-67
2021/06/02 02:46:56;;;;;;;2.40;2.20;;;13.10;99.90;;;;;;5046537;28;20229;-69
2021/06/02 02:49:39;;;;;;;2.00;1.73;;;13.20;99.90;;;;;;5046945;28;20340;-68
2021/06/02 02:52:33;;;;;;;2.10;1.92;;;13.10;99.90;;;;;;5046331;28;20222;-67
2021/06/02 02:55:26;;;;;;;1.80;1.52;;;13.10;99.90;;;;;;5046879;28;20182;-67
2021/06/02 02:58:16;;;;;;;2.13;1.90;;;13.20;99.90;;;;;;5046738;28;20182;-67
2021/06/02 03:01:01;;;;;;;2.88;2.10;;;13.20;99.90;;;;;;5045275;28;20185;-67
2021/06/02 03:03:41;;;;;;;1.88;1.55;;;13.30;99.90;;;;;;5045086;28;20189;-68
2021/06/02 03:06:20;;;;;;;2.13;1.67;;;13.30;99.90;;;;;;5045544;28;20228;-67
2021/06/02 03:09:06;;;;;;;2.20;1.98;;;13.30;99.90;;;;;;5061427;28;20205;-69
2021/06/02 03:11:40;;;;;;;2.22;1.67;;;13.30;99.90;;;;;;5045725;28;20664;-68
2021/06/02 03:14:35;;;;;;;2.78;2.00;;;13.30;99.90;;;;;;5047274;28;20224;-68
2021/06/02 03:17:16;;;;;;;2.28;2.08;;;13.30;99.90;;;;;;5046170;28;20251;-67
2021/06/02 03:20:14;;;;;;;1.92;1.70;;;13.40;99.90;;;;;;5045829;28;20603;-68
2021/06/02 03:23:25;;;;;;;2.20;1.55;;;13.30;99.90;;;;;;5044413;28;20673;-70
2021/06/02 03:26:04;;;;;;;1.98;1.45;;;13.30;99.90;;;;;;5046172;28;20225;-68
2021/06/02 03:28:41;;;;;;;1.98;1.70;;;13.30;99.90;;;;;;5045854;28;20206;-67
2021/06/02 03:31:09;;;;;;;1.83;1.60;;;13.30;99.90;;;;;;5045677;28;20213;-69
2021/06/02 03:34:12;;;;;;;3.22;1.50;;;13.30;99.90;;;;;;5046247;28;20661;-68
2021/06/02 03:36:56;;;;;;;1.85;1.30;;;13.40;99.90;;;;;;5046126;28;20668;-69
2021/06/02 03:39:58;;;;;;;2.38;1.38;;;13.40;99.90;;;;;;5045818;28;20210;-68
2021/06/02 03:42:53;;;;;;;2.45;1.27;;;13.50;99.90;;;;;;5045097;28;20595;-67
2021/06/02 03:45:51;;;;;;;1.73;1.30;;;13.50;99.90;;;;;;5045975;28;20214;-67
2021/06/02 03:48:22;;;;;;;1.63;1.50;;;13.50;99.90;;;;;;5045408;28;20217;-67
2021/06/02 03:51:16;;;;;;;1.50;1.23;;;13.60;99.90;;;;;;5060528;28;20181;-67
2021/06/02 03:54:06;;;;;;;1.65;1.27;;;13.60;99.90;;;;;;5045730;28;20190;-67
2021/06/02 03:57:01;;;;;;;2.80;1.23;;;13.60;99.90;;;;;;5045732;28;20657;-67
2021/06/02 03:59:58;;;;;;;1.05;0.95;;;13.50;99.90;;;;;;5060516;28;20594;-67
2021/06/02 04:02:39;;;;;;;1.65;1.42;;;13.40;99.90;;;;;;5044654;28;20182;-68
2021/06/02 04:05:05;;;;;;;1.80;1.25;;;13.40;99.90;;;;;;5045419;28;20251;-68
2021/06/02 04:07:58;;;;;;;2.53;1.60;;;13.50;99.90;;;;;;5045637;28;20241;-68
2021/06/02 04:10:45;;;;;;;1.25;1.15;;;13.50;99.90;;;;;;5045349;28;20253;-68
2021/06/02 04:14:02;;;;;;;1.33;1.10;;;13.60;99.90;;;;;;5044763;28;20185;-68
2021/06/02 04:16:39;;;;;;;2.10;1.30;;;13.60;99.90;;;;;;5012135;28;20197;-67
2021/06/02 04:19:14;;;;;;;1.48;1.10;;;13.80;99.90;;;;;;5038036;28;20213;-69
2021/06/02 04:21:44;;;;;;;3.63;1.63;;;13.90;99.90;;;;;;5044656;28;20742;-68
2021/06/02 04:24:14;;;;;;;1.63;1.40;;;14.00;99.90;;;;;;5060040;28;20181;-67
2021/06/02 04:26:41;;;;;;;1.42;1.33;;;14.10;99.90;;;;;;5045355;28;20261;-69
2021/06/02 04:29:10;;;;;;;1.80;1.00;;;14.20;99.90;;;;;;5044830;28;20300;-70
2021/06/02 04:31:38;;;;;;;2.35;1.38;;;14.30;99.90;;;;;;5044729;28;20182;-68
2021/06/02 04:34:04;;;;;;;1.05;0.98;;;14.40;99.90;;;;;;5045435;28;20671;-69
2021/06/02 04:36:31;;;;;;;1.63;1.02;;;14.60;99.90;;;;;;5044926;28;20194;-68
2021/06/02 04:38:59;;;;;;;0.93;0.82;;;14.70;99.90;;;;;;5044722;28;20213;-68
2021/06/02 04:41:26;;;;;;;6.97;0.93;;;14.80;99.90;;;;;;5044570;28;20178;-67
2021/06/02 04:43:55;;;;;;;1.60;0.70;;;15.00;99.90;;;;;;5045351;28;20182;-68
2021/06/02 04:46:21;;;;;;;0.77;0.75;;;15.10;99.90;;;;;;5043641;28;20284;-68
2021/06/02 04:48:51;;;;;;;1.00;0.90;;;15.10;99.90;;;;;;5044410;28;20202;-70
2021/06/02 04:51:38;;;;;;;1.35;0.90;;;15.40;99.90;;;;;;5042924;28;20193;-69
2021/06/02 04:54:42;;;;;;;0.63;0.60;;;15.90;99.90;;;;;;5044897;28;20186;-68
2021/06/02 04:57:51;;;;;;;1.00;0.85;;;16.50;99.90;;;;;;5044827;28;20205;-68
2021/06/02 05:00:20;;;;;;;0.93;0.77;;;16.80;99.90;;;;;;5044441;28;20574;-67
2021/06/02 05:03:11;;;;;;;1.77;1.20;;;16.70;99.90;;;;;;5043681;28;20178;-69
2021/06/02 05:06:10;;;;;;;1.00;0.60;;;16.70;99.90;;;;;;5044661;28;20182;-67
2021/06/02 05:08:57;;;;;;;0.82;0.60;;;16.40;99.90;;;;;;5041531;28;20321;-68
2021/06/02 05:11:53;;;;;;;0.95;0.80;;;16.00;99.90;;;;;;5043298;28;20189;-68
2021/06/02 05:14:56;;;;;;;1.45;0.90;;;15.90;99.90;;;;;;5043090;28;20265;-69
2021/06/02 05:17:40;;;;;;;3.90;0.95;;;16.40;99.90;;;;;;5043916;28;20216;-68
2021/06/02 05:23:50;;;;;;;0.90;0.80;;;17.00;99.90;;;;;;5043544;28;20639;-67
2021/06/02 05:26:41;;;;;;;2.30;0.95;;;16.80;99.90;;;;;;5043611;28;20194;-68
2021/06/02 05:29:44;;;;;;;0.60;0.60;;;16.40;99.90;;;;;;5043206;28;20206;-67
2021/06/02 05:32:57;;;;;;;1.35;0.75;;;16.10;99.90;;;;;;5043363;28;20182;-68
2021/06/02 05:36:04;;;;;;;0.63;0.63;;;15.90;99.90;;;;;;5043671;28;20174;-68
2021/06/02 05:38:41;;;;;;;0.93;0.60;;;15.80;99.90;;;;;;5039476;28;20226;-68
2021/06/02 05:41:15;;;;;;;1.00;0.90;;;15.80;99.90;;;;;;5041644;28;20641;-68
2021/06/02 05:44:01;;;;;;;1.63;0.65;;;16.00;99.90;;;;;;5043449;28;20182;-68
2021/06/02 05:46:58;;;;;;;2.38;0.75;;;16.90;99.90;;;;;;5043291;28;20248;-67
2021/06/02 05:49:53;;;;;;;0.73;0.60;;;18.30;99.90;;;;;;5042961;28;20202;-68
2021/06/02 05:52:42;;;;;;;1.23;0.70;;;18.90;99.90;;;;;;5043337;28;20178;-68
2021/06/02 05:55:39;;;;;;;0.60;0.60;;;18.70;99.90;;;;;;5033066;28;20209;-68
2021/06/02 05:58:33;;;;;;;0.75;0.60;;;18.10;99.90;;;;;;5043100;28;20188;-68
2021/06/02 06:01:20;;;;;;;0.70;0.60;;;18.00;99.90;;;;;;5042921;28;20188;-69
2021/06/02 06:03:50;;;;;;;0.63;0.57;;;17.90;99.90;;;;;;5043915;28;20801;-69
2021/06/02 06:06:42;;;;;;;1.40;0.70;;;17.60;99.90;;;;;;5059002;28;20178;-67
2021/06/02 06:09:17;;;;;;;1.30;0.70;;;17.10;99.90;;;;;;5043314;28;20675;-67
2021/06/02 06:11:58;;;;;;;1.92;1.00;;;16.70;99.90;;;;;;5043093;28;20537;-66
2021/06/02 06:14:33;;;;;;;3.88;1.50;;;15.80;99.90;;;;;;5058889;28;20184;-67
2021/06/02 06:17:21;;;;;;;0.80;0.73;;;15.20;99.90;;;;;;5059287;28;20586;-67
2021/06/02 06:20:11;;;;;;;1.35;0.90;;;14.60;99.90;;;;;;5042993;28;20288;-65
2021/06/02 06:23:09;;;;;;;1.88;1.13;;;14.30;99.90;;;;;;5042163;28;20579;-67
2021/06/02 06:26:06;;;;;;;0.77;0.75;;;14.10;99.90;;;;;;5042869;28;20186;-67
2021/06/02 06:28:56;;;;;;;1.40;1.08;;;14.00;99.90;;;;;;5041704;28;20251;-68
2021/06/02 06:31:25;;;;;;;2.50;1.08;;;13.90;99.90;;;;;;5042780;28;20925;-66
2021/06/02 06:33:54;;;;;;;1.60;0.85;;;13.80;99.90;;;;;;5043857;28;20183;-66
2021/06/02 06:36:23;;;;;;;1.40;1.08;;;13.70;99.90;;;;;;5046906;28;20273;-67
2021/06/02 06:39:07;;;;;;;1.83;0.90;;;13.70;99.90;;;;;;5046644;28;20237;-68
2021/06/02 06:41:34;;;;;;;1.15;1.00;;;13.60;99.90;;;;;;5046477;28;20224;-67
2021/06/02 06:44:02;;;;;;;1.63;1.23;;;13.60;99.90;;;;;;5046967;28;20174;-68
2021/06/02 06:46:30;;;;;;;2.78;1.90;;;13.60;99.90;;;;;;5047155;28;20279;-68
2021/06/02 06:48:59;;;;;;;1.15;0.98;;;13.60;99.90;;;;;;5046792;28;20198;-67
2021/06/02 06:51:28;;;;;;;1.23;1.13;;;13.60;99.90;;;;;;5046349;28;20553;-65
2021/06/02 06:53:56;;;;;;;1.42;1.08;;;13.80;99.90;;;;;;5046832;28;20312;-68
2021/06/02 06:56:22;;;;;;;1.20;1.10;;;14.00;99.90;;;;;;5046682;28;20229;-66
2021/06/02 06:58:48;;;;;;;1.10;0.98;;;14.20;99.90;;;;;;5046414;28;20210;-67
2021/06/02 07:01:16;;;;;;;1.55;1.25;;;14.80;99.90;;;;;;5045889;28;20206;-66
2021/06/02 07:03:43;;;;;;;3.13;1.45;;;15.30;99.90;;;;;;5046495;28;20178;-67
2021/06/02 07:06:12;;;;;;;1.30;1.20;;;15.60;99.90;;;;;;5046309;28;20244;-67
2021/06/02 07:08:41;;;;;;;2.10;1.33;;;15.90;99.90;;;;;;5046205;28;20217;-67
2021/06/02 07:11:06;;;;;;;1.88;1.40;;;16.30;99.90;;;;;;5061072;28;20654;-68
2021/06/02 07:13:33;;;;;;;1.15;1.05;;;16.60;99.90;;;;;;5046288;28;20198;-67
2021/06/02 07:16:00;;;;;;;2.35;1.50;;;16.70;99.90;;;;;;5045953;28;20272;-68
2021/06/02 07:18:28;;;;;;;1.25;1.15;;;16.80;99.90;;;;;;5045850;28;20206;-69
2021/06/02 07:20:54;;;;;;;1.30;1.00;;;17.00;99.90;;;;;;5045496;28;20213;-67
2021/06/02 07:23:20;;;;;;;1.33;1.02;;;17.00;99.90;;;;;;5045690;28;20261;-69
2021/06/02 07:25:46;;;;;;;1.08;0.98;;;17.10;99.90;;;;;;5046139;28;20174;-68
2021/06/02 07:28:13;;;;;;;2.38;1.00;;;17.00;99.90;;;;;;5045308;28;20201;-69
2021/06/02 07:30:39;;;;;;;1.33;1.23;;;17.20;99.90;;;;;;5044007;28;20610;-69
2021/06/02 07:33:06;;;;;;;1.13;1.02;;;17.20;99.90;;;;;;5045678;28;20193;-68
2021/06/02 07:35:32;;;;;;;1.30;1.02;;;17.30;99.90;;;;;;5045885;28;20505;-69
2021/06/02 07:37:58;;;;;;;1.00;0.80;;;17.60;99.90;;;;;;5045842;28;21196;-68
2021/06/02 07:40:24;;;;;;;1.90;1.42;;;17.70;99.90;;;;;;5045615;28;20213;-66
2021/06/02 07:42:50;;;;;;;3.17;1.70;;;17.80;99.90;;;;;;5045102;28;20696;-66
2021/06/02 07:45:17;;;;;;;1.38;1.08;;;17.70;99.90;;;;;;5044926;28;20190;-67
2021/06/02 07:47:43;;;;;;;3.33;1.33;;;18.00;99.90;;;;;;5043954;28;20186;-68
2021/06/02 07:50:09;;;;;;;2.92;1.23;;;18.20;99.90;;;;;;5045091;28;20273;-67
2021/06/02 07:52:35;;;;;;;1.25;1.15;;;18.40;99.90;;;;;;5044669;28;20566;-67
2021/06/02 07:55:02;;;;;;;1.80;1.63;;;18.30;99.90;;;;;;5060670;28;20193;-65
2021/06/02 07:57:28;;;;;;;1.83;1.35;;;18.20;99.90;;;;;;5040870;28;20298;-67
2021/06/02 07:59:54;;;;;;;1.40;1.17;;;18.20;99.90;;;;;;5040264;28;20321;-67
2021/06/02 08:02:19;;;;;;;1.60;1.30;;;18.20;99.90;;;;;;5044297;28;20186;-66
2021/06/02 08:04:45;;;;;;;2.25;1.50;;;18.10;99.90;;;;;;5044719;28;20286;-66
2021/06/02 08:07:11;;;;;;;1.95;1.30;;;18.20;99.90;;;;;;5044748;28;20178;-66
2021/06/02 08:09:37;;;;;;;2.28;1.30;;;18.10;99.90;;;;;;5044410;28;20229;-64
2021/06/02 08:12:06;;;;;;;1.67;1.50;;;18.40;99.90;;;;;;5044372;28;20193;-65
2021/06/02 08:14:32;;;;;;;1.98;1.77;;;18.60;99.90;;;;;;5044732;28;20545;-63
2021/06/02 08:16:58;;;;;;;1.63;1.42;;;18.60;99.90;;;;;;5044319;28;20231;-65
2021/06/02 08:19:24;;;;;;;2.67;1.80;;;18.80;99.90;;;;;;5044753;28;20689;-63
2021/06/02 08:21:50;;;;;;;2.03;1.70;;;18.70;99.90;;;;;;5043981;28;20645;-67
2021/06/02 08:24:16;;;;;;;2.33;1.65;;;18.70;99.90;;;;;;5044376;28;20229;-65
2021/06/02 08:26:45;;;;;;;2.67;1.73;;;18.80;99.90;;;;;;5044318;28;20185;-65
2021/06/02 08:29:11;;;;;;;1.83;1.48;;;18.80;99.90;;;;;;5044952;28;20201;-67
2021/06/02 08:31:37;;;;;;;1.92;1.70;;;18.80;99.90;;;;;;5043303;28;20508;-65
2021/06/02 08:34:03;;;;;;;2.72;1.90;;;18.80;99.90;;;;;;5043991;28;20181;-66
2021/06/02 08:36:29;;;;;;;2.10;1.80;;;19.00;99.90;;;;;;5044393;28;20194;-65
2021/06/02 08:38:55;;;;;;;1.88;1.40;;;19.00;99.90;;;;;;5044052;28;20209;-65
2021/06/02 08:41:22;;;;;;;2.08;1.60;;;19.20;99.90;;;;;;5044058;28;20179;-65
2021/06/02 08:43:48;;;;;;;2.13;1.70;;;19.30;99.90;;;;;;5044484;28;20545;-67
2021/06/02 08:46:15;;;;;;;2.72;2.05;;;19.20;99.90;;;;;;5043975;28;20867;-67
2021/06/02 08:48:45;;;;;;;3.15;1.67;;;19.20;99.90;;;;;;5043728;28;20209;-66
2021/06/02 08:51:10;;;;;;;2.20;1.67;;;19.10;99.90;;;;;;5043286;28;20185;-67
2021/06/02 08:53:36;;;;;;;2.10;1.65;;;19.10;99.90;;;;;;5059512;28;20182;-67
2021/06/02 08:56:04;;;;;;;2.40;1.70;;;19.20;99.90;;;;;;5043709;28;20189;-67
2021/06/02 08:58:30;;;;;;;2.80;1.60;;;19.40;99.90;;;;;;5043341;28;20205;-66
2021/06/02 09:00:56;;;;;;;2.00;1.75;;;19.50;99.90;;;;;;5041897;28;20174;-68
2021/06/02 09:03:22;;;;;;;3.30;1.58;;;19.70;99.90;;;;;;5043894;28;20332;-67
2021/06/02 09:05:48;;;;;;;3.45;1.80;;;20.00;99.90;;;;;;5043865;28;20186;-68
2021/06/02 09:08:18;;;;;;;1.77;1.67;;;20.00;99.90;;;;;;5042165;28;20251;-67
2021/06/02 09:10:46;;;;;;;2.03;1.77;;;20.10;99.90;;;;;;5042884;28;20178;-67
2021/06/02 09:13:16;;;;;;;1.85;1.35;;;20.20;99.90;;;;;;5042321;28;20178;-69
2021/06/02 09:15:47;;;;;;;1.80;1.52;;;20.30;99.90;;;;;;5043616;28;20174;-69
2021/06/02 09:18:31;;;;;;;1.52;1.15;;;20.20;99.90;;;;;;5043219;28;20680;-69
2021/06/02 09:20:56;;;;;;;1.77;1.60;;;20.50;99.90;;;;;;5043253;28;20190;-68
2021/06/02 09:23:35;;;;;;;1.80;1.30;;;20.70;99.90;;;;;;5043453;28;20629;-70
2021/06/02 09:26:10;;;;;;;2.80;1.15;;;20.80;99.90;;;;;;5043617;28;20199;-68
2021/06/02 09:29:02;;;;;;;2.58;1.67;;;20.90;99.90;;;;;;5042959;28;20210;-69
2021/06/02 09:31:35;;;;;;;1.42;1.27;;;21.10;99.90;;;;;;5042897;28;20206;-69
2021/06/02 09:34:19;;;;;;;1.58;1.38;;;21.10;99.90;;;;;;5043653;28;20190;-68
2021/06/02 09:36:51;;;;;;;2.80;1.60;;;21.10;99.90;;;;;;5043507;28;20188;-70
2021/06/02 09:39:20;;;;;;;2.47;1.13;;;21.00;99.90;;;;;;5043490;28;20668;-70
2021/06/02 09:41:48;;;;;;;2.60;1.25;;;21.00;99.90;;;;;;5042816;28;20174;-71
2021/06/02 09:44:19;;;;;;;2.38;1.33;;;21.20;99.90;;;;;;5043107;28;20174;-69
2021/06/02 09:47:23;;;;;;;1.92;1.45;;;21.40;99.90;;;;;;5043010;28;20190;-67
2021/06/02 09:49:51;;;;;;;1.55;1.38;;;21.30;99.90;;;;;;5040517;28;20210;-68
2021/06/02 09:52:18;;;;;;;1.38;1.20;;;21.50;99.90;;;;;;5040439;28;20190;-69
2021/06/02 09:54:44;;;;;;;2.20;1.40;;;21.60;99.90;;;;;;5043224;28;20178;-68
2021/06/02 09:57:10;;;;;;;2.10;1.65;;;21.60;99.90;;;;;;5043030;28;20182;-67
2021/06/02 10:00:00;;;;;;;1.80;1.35;;;21.70;99.90;;;;;;5042790;28;20210;-68
2021/06/02 10:02:26;;;;;;;1.73;1.42;;;21.60;99.90;;;;;;5041465;28;20178;-67
2021/06/02 10:05:11;;;;;;;3.05;1.38;;;21.70;99.90;;;;;;5043036;28;20171;-65
2021/06/02 10:07:47;;;;;;;2.25;1.65;;;21.80;99.90;;;;;;5058225;28;20606;-68
2021/06/02 10:10:19;;;;;;;1.95;1.75;;;21.90;99.90;;;;;;5044979;28;20198;-68
2021/06/02 10:12:57;;;;;;;2.75;1.75;;;22.00;99.90;;;;;;5045893;28;20182;-66
2021/06/02 10:15:31;;;;;;;2.25;1.90;;;22.10;99.90;;;;;;5046339;28;20189;-68
2021/06/02 10:17:59;;;;;;;4.55;1.88;;;22.10;99.90;;;;;;5046343;28;20586;-70
2021/06/02 10:20:25;;;;;;;3.22;1.90;;;22.30;99.90;;;;;;5043701;28;20293;-67
2021/06/02 10:23:00;;;;;;;1.70;1.48;;;22.20;99.90;;;;;;4873914;28;20243;-68
2021/06/02 10:25:28;;;;;;;2.97;1.95;;;22.40;99.90;;;;;;5005532;28;20655;-67
2021/06/02 10:27:56;;;;;;;2.22;1.90;;;22.60;99.90;;;;;;5006069;28;20546;-66
2021/06/02 10:30:23;;;;;;;3.38;1.88;;;22.50;99.90;;;;;;5006081;28;20210;-67
2021/06/02 10:32:54;;;;;;;2.58;2.00;;;22.50;99.90;;;;;;5005481;28;20325;-70
2021/06/02 10:35:20;;;;;;;2.35;2.05;;;22.70;99.90;;;;;;5006896;28;20234;-69
2021/06/02 10:37:46;;;;;;;2.28;1.85;;;22.70;99.90;;;;;;5006796;28;20184;-68
2021/06/02 10:40:24;;;;;;;2.03;1.63;;;22.90;99.90;;;;;;5006927;28;20215;-68
2021/06/02 10:42:52;;;;;;;2.10;1.67;;;23.00;99.90;;;;;;5006553;28;20804;-66
2021/06/02 10:45:35;;;;;;;2.35;1.85;;;22.80;99.90;;;;;;5006112;28;20184;-68
2021/06/02 10:48:02;;;;;;;3.78;2.28;;;22.90;99.90;;;;;;5006082;28;20198;-70
2021/06/02 10:50:40;;;;;;;2.53;2.33;;;22.70;99.90;;;;;;5006718;28;20195;-69
2021/06/02 10:53:32;;;;;;;2.25;1.83;;;22.50;99.90;;;;;;5006537;28;20187;-70
2021/06/02 10:55:59;;;;;;;2.15;1.80;;;22.40;99.90;;;;;;5018915;28;20794;-66
2021/06/02 10:58:29;;;;;;;3.33;2.10;;;22.30;99.90;;;;;;5006552;28;20553;-68
2021/06/02 11:01:07;;;;;;;2.83;2.08;;;22.40;99.90;;;;;;5006113;28;20226;-70
2021/06/02 11:03:34;;;;;;;3.05;2.00;;;22.80;99.90;;;;;;5006028;28;20629;-70
2021/06/02 11:06:15;;;;;;;3.78;1.98;;;23.20;99.90;;;;;;5006215;28;20176;-68
2021/06/02 11:08:52;;;;;;;3.05;2.10;;;23.60;99.90;;;;;;5006262;28;20207;-67
2021/06/02 11:11:24;;;;;;;4.88;2.42;;;23.70;99.90;;;;;;5004966;28;20500;-70
2021/06/02 11:14:16;;;;;;;2.63;1.70;;;23.70;99.90;;;;;;5005703;28;20643;-69
2021/06/02 11:16:43;;;;;;;2.47;2.03;;;23.60;99.90;;;;;;5001303;28;20202;-68
2021/06/02 11:19:12;;;;;;;3.90;1.92;;;23.40;99.90;;;;;;5005939;28;20219;-70
2021/06/02 11:21:56;;;;;;;4.22;2.60;;;23.50;99.90;;;;;;5005721;28;20190;-67
2021/06/02 11:24:31;;;;;;;2.05;1.80;;;23.70;99.90;;;;;;5005974;28;20176;-68
2021/06/02 11:27:28;;;;;;;2.70;2.20;;;23.70;99.90;;;;;;5006816;28;20237;-68
2021/06/02 11:29:56;;;;;;;2.75;2.03;;;23.80;99.90;;;;;;5006323;28;20218;-70
2021/06/02 11:32:29;;;;;;;2.75;2.38;;;24.00;99.90;;;;;;5006104;28;20192;-70
2021/06/02 11:35:06;;;;;;;2.75;2.25;;;24.00;99.90;;;;;;5006572;28;20187;-66
2021/06/02 11:37:33;;;;;;;3.08;2.00;;;24.00;99.90;;;;;;5005252;28;20187;-66
2021/06/02 11:40:03;;;;;;;3.47;2.47;;;24.00;99.90;;;;;;5005885;28;20276;-68
2021/06/02 11:42:41;;;;;;;2.47;2.25;;;24.00;99.90;;;;;;5005734;28;20333;-68
2021/06/02 11:45:16;;;;;;;2.42;2.13;;;24.00;99.90;;;;;;5005870;28;20282;-68
2021/06/02 11:47:48;;;;;;;2.85;2.28;;;24.20;99.90;;;;;;5006146;28;20571;-70
2021/06/02 11:50:19;;;;;;;3.92;2.63;;;24.30;99.90;;;;;;5005908;28;20211;-68
2021/06/02 11:52:56;;;;;;;2.53;2.17;;;24.50;99.90;;;;;;5005543;28;20714;-68
2021/06/02 11:55:23;;;;;;;3.22;2.50;;;24.70;99.90;;;;;;5005800;28;20182;-71
2021/06/02 11:57:51;;;;;;;2.67;2.13;;;24.90;99.90;;;;;;5005871;28;20777;-69
2021/06/02 12:00:28;;;;;;;2.13;1.88;;;24.80;99.90;;;;;;5004621;28;20199;-70
2021/06/02 12:03:08;;;;;;;2.85;1.80;;;24.80;99.90;;;;;;5004465;28;20183;-70
2021/06/02 12:05:36;;;;;;;3.10;2.15;;;25.00;99.90;;;;;;5005711;28;20184;-70
2021/06/02 12:08:12;;;;;;;2.00;1.70;;;25.00;99.90;;;;;;5005607;28;20857;-68
2021/06/02 12:10:48;;;;;;;2.83;2.20;;;24.90;99.90;;;;;;5005418;28;20233;-67
2021/06/02 12:13:27;;;;;;;2.00;1.80;;;24.90;99.90;;;;;;5005635;28;20450;-68
2021/06/02 12:15:59;;;;;;;3.33;2.30;;;25.00;99.90;;;;;;5005473;28;20542;-67
2021/06/02 12:18:31;;;;;;;2.63;1.88;;;25.30;99.90;;;;;;5005280;28;20258;-67
2021/06/02 12:21:15;;;;;;;2.20;2.00;;;25.40;99.90;;;;;;5005068;28;20180;-68
2021/06/02 12:23:57;;;;;;;1.80;1.70;;;25.50;99.90;;;;;;5005842;28;20180;-70
2021/06/02 12:26:28;;;;;;;2.13;1.90;;;25.70;99.90;;;;;;5005698;28;20179;-70
2021/06/02 12:28:55;;;;;;;2.17;1.98;;;25.70;99.90;;;;;;5004994;28;20199;-69
2021/06/02 12:31:45;;;;;;;2.00;1.80;;;25.70;99.90;;;;;;5004819;28;20660;-70
2021/06/02 12:34:12;;;;;;;2.20;2.00;;;25.90;99.90;;;;;;5004631;28;20179;-71
2021/06/02 12:36:42;;;;;;;3.17;1.88;;;26.00;99.90;;;;;;5006071;28;20190;-71
2021/06/02 12:39:11;;;;;;;2.20;2.00;;;26.10;99.90;;;;;;5004545;28;20235;-69
2021/06/02 12:41:40;;;;;;;2.85;1.92;;;26.00;99.90;;;;;;5002961;28;20193;-67
2021/06/02 12:44:07;;;;;;;2.30;2.10;;;26.00;99.90;;;;;;5003499;28;20179;-68
2021/06/02 12:46:33;;;;;;;2.15;1.73;;;25.90;99.90;;;;;;5004115;28;20203;-69
2021/06/02 12:48:58;;;;;;;1.73;1.52;;;25.70;99.90;;;;;;5004137;28;20199;-67
2021/06/02 12:51:25;;;;;;;2.90;1.90;;;25.80;99.90;;;;;;5004342;28;20211;-68
2021/06/02 12:53:52;;;;;;;2.10;1.90;;;25.70;99.90;;;;;;5004008;28;20466;-69
2021/06/02 12:56:18;;;;;;;2.78;1.67;;;25.60;99.90;;;;;;5003210;28;20261;-67
2021/06/02 12:58:57;;;;;;;2.15;1.90;;;25.70;99.90;;;;;;5003508;28;20410;-69
2021/06/02 13:01:29;;;;;;;1.80;1.70;;;26.00;99.90;;;;;;5004325;28;20194;-71
2021/06/02 13:03:56;;;;;;;2.15;2.05;;;26.00;99.90;;;;;;5003019;28;20661;-69
2021/06/02 13:06:24;;;;;;;4.50;2.15;;;26.00;99.90;;;;;;5005051;28;20423;-69
2021/06/02 13:08:51;;;;;;;1.60;1.50;;;26.00;99.90;;;;;;5003994;28;20206;-70
2021/06/02 13:11:20;;;;;;;1.77;1.67;;;26.10;99.90;;;;;;5004280;28;20176;-68
2021/06/02 13:13:49;;;;;;;2.70;1.60;;;26.10;99.90;;;;;;5004844;28;20175;-68
2021/06/02 13:16:16;;;;;;;1.85;1.48;;;26.10;99.90;;;;;;5004727;28;20195;-70
2021/06/02 13:18:42;;;;;;;1.90;1.33;;;26.30;99.90;;;;;;5004363;28;20729;-69
2021/06/02 13:21:13;;;;;;;2.78;1.83;;;26.10;99.90;;;;;;5004406;28;20233;-70
2021/06/02 13:23:38;;;;;;;3.75;1.90;;;26.20;99.90;;;;;;5004608;28;20180;-69
2021/06/02 13:26:09;;;;;;;1.77;1.67;;;26.20;99.90;;;;;;5004556;28;20202;-69
2021/06/02 13:28:53;;;;;;;2.60;1.92;;;26.10;99.90;;;;;;5004261;28;20206;-69
2021/06/02 13:31:34;;;;;;;1.63;1.52;;;26.30;99.90;;;;;;5003953;28;20182;-70
2021/06/02 13:34:00;;;;;;;2.60;1.73;;;26.40;99.90;;;;;;5003918;28;20187;-70
2021/06/02 13:36:28;;;;;;;1.80;1.70;;;26.40;99.90;;;;;;5004812;28;20180;-68